sensor_id;sensor_type;location;lat;lon;timestamp;P1;durP1;ratioP1;P2;durP2;ratioP2
18455;SDS011;9357;49.900;8.208;2023-05-09T00:01:19;23.20;;;19.07;;
18455;SDS011;9357;49.900;8.208;2023-05-09T00:02:52;22.60;;;19.33;;
18455;SDS011;9357;49.900;8.208;2023-05-09T00:04:25;22.53;;;19.30;;
18455;SDS011;9357;49.900;8.208;2023-05-09T00:05:58;23.13;;;19.80;;
18455;SDS011;9357;49.900;8.208;2023-05-09T00:07:31;22.57;;;20.17;;
18455;SDS011;9357;49.900;8.208;2023-05-09T00:09:03;22.53;;;20.13;;
18455;SDS011;9357;49.900;8.208;2023-05-09T00:10:36;25.20;;;20.57;;
18455;SDS011;9357;49.900;8.208;2023-05-09T00:12:10;25.67;;;21.47;;
18455;SDS011;9357;49.900;8.208;2023-05-09T00:13:43;24.33;;;21.70;;
18455;SDS011;9357;49.900;8.208;2023-05-09T00:15:16;25.57;;;21.60;;
18455;SDS011;9357;49.900;8.208;2023-05-09T00:16:49;24.80;;;20.93;;
18455;SDS011;9357;49.900;8.208;2023-05-09T00:18:21;25.50;;;20.87;;
18455;SDS011;9357;49.900;8.208;2023-05-09T00:19:54;24.23;;;21.63;;
18455;SDS011;9357;49.900;8.208;2023-05-09T00:21:27;25.57;;;21.67;;
18455;SDS011;9357;49.900;8.208;2023-05-09T00:23:00;25.90;;;21.80;;
18455;SDS011;9357;49.900;8.208;2023-05-09T00:24:33;25.97;;;22.17;;
18455;SDS011;9357;49.900;8.208;2023-05-09T00:26:05;25.80;;;22.23;;
18455;SDS011;9357;49.900;8.208;2023-05-09T00:27:40;27.93;;;21.43;;
18455;SDS011;9357;49.900;8.208;2023-05-09T00:29:12;26.33;;;21.97;;
18455;SDS011;9357;49.900;8.208;2023-05-09T00:30:44;27.73;;;22.93;;
18455;SDS011;9357;49.900;8.208;2023-05-09T00:32:17;25.50;;;21.63;;
18455;SDS011;9357;49.900;8.208;2023-05-09T00:33:48;25.40;;;21.83;;
18455;SDS011;9357;49.900;8.208;2023-05-09T00:35:21;26.13;;;21.47;;
18455;SDS011;9357;49.900;8.208;2023-05-09T00:36:54;25.70;;;21.97;;
18455;SDS011;9357;49.900;8.208;2023-05-09T00:38:26;26.23;;;21.43;;
18455;SDS011;9357;49.900;8.208;2023-05-09T00:39:58;26.60;;;21.30;;
18455;SDS011;9357;49.900;8.208;2023-05-09T00:41:30;27.53;;;21.63;;
18455;SDS011;9357;49.900;8.208;2023-05-09T00:43:04;22.87;;;20.40;;
18455;SDS011;9357;49.900;8.208;2023-05-09T00:44:37;26.07;;;21.60;;
18455;SDS011;9357;49.900;8.208;2023-05-09T00:46:10;25.07;;;21.00;;
18455;SDS011;9357;49.900;8.208;2023-05-09T00:47:43;25.00;;;21.37;;
18455;SDS011;9357;49.900;8.208;2023-05-09T00:49:15;26.20;;;21.60;;
18455;SDS011;9357;49.900;8.208;2023-05-09T00:50:47;25.83;;;20.50;;
18455;SDS011;9357;49.900;8.208;2023-05-09T00:52:23;26.20;;;21.33;;
18455;SDS011;9357;49.900;8.208;2023-05-09T00:53:56;25.30;;;21.80;;
18455;SDS011;9357;49.900;8.208;2023-05-09T00:55:29;23.23;;;20.10;;
18455;SDS011;9357;49.900;8.208;2023-05-09T00:57:03;24.10;;;20.13;;
18455;SDS011;9357;49.900;8.208;2023-05-09T00:58:37;24.47;;;19.77;;
18455;SDS011;9357;49.900;8.208;2023-05-09T01:00:10;23.33;;;19.77;;
18455;SDS011;9357;49.900;8.208;2023-05-09T01:01:43;22.03;;;19.53;;
18455;SDS011;9357;49.900;8.208;2023-05-09T01:03:17;23.33;;;20.00;;
18455;SDS011;9357;49.900;8.208;2023-05-09T01:04:50;23.63;;;21.03;;
18455;SDS011;9357;49.900;8.208;2023-05-09T01:06:23;25.73;;;19.87;;
18455;SDS011;9357;49.900;8.208;2023-05-09T01:08:09;26.07;;;21.00;;
18455;SDS011;9357;49.900;8.208;2023-05-09T01:09:49;25.70;;;20.53;;
18455;SDS011;9357;49.900;8.208;2023-05-09T01:11:33;26.17;;;20.63;;
18455;SDS011;9357;49.900;8.208;2023-05-09T01:13:14;25.13;;;21.20;;
18455;SDS011;9357;49.900;8.208;2023-05-09T01:14:55;26.80;;;21.27;;
18455;SDS011;9357;49.900;8.208;2023-05-09T01:16:43;24.60;;;21.37;;
18455;SDS011;9357;49.900;8.208;2023-05-09T01:18:24;24.97;;;20.87;;
18455;SDS011;9357;49.900;8.208;2023-05-09T01:20:02;25.87;;;21.97;;
18455;SDS011;9357;49.900;8.208;2023-05-09T01:21:48;25.73;;;22.30;;
18455;SDS011;9357;49.900;8.208;2023-05-09T01:23:37;26.80;;;22.67;;
18455;SDS011;9357;49.900;8.208;2023-05-09T01:25:34;25.47;;;22.00;;
18455;SDS011;9357;49.900;8.208;2023-05-09T01:27:20;26.63;;;21.53;;
18455;SDS011;9357;49.900;8.208;2023-05-09T01:29:00;27.63;;;22.67;;
18455;SDS011;9357;49.900;8.208;2023-05-09T01:30:57;26.60;;;22.27;;
18455;SDS011;9357;49.900;8.208;2023-05-09T01:32:31;27.63;;;22.17;;
18455;SDS011;9357;49.900;8.208;2023-05-09T01:34:05;28.20;;;21.73;;
18455;SDS011;9357;49.900;8.208;2023-05-09T01:35:40;25.23;;;22.20;;
18455;SDS011;9357;49.900;8.208;2023-05-09T01:37:16;27.20;;;22.63;;
18455;SDS011;9357;49.900;8.208;2023-05-09T01:38:50;26.07;;;22.13;;
18455;SDS011;9357;49.900;8.208;2023-05-09T01:40:24;27.20;;;21.83;;
18455;SDS011;9357;49.900;8.208;2023-05-09T01:42:03;27.67;;;23.07;;
18455;SDS011;9357;49.900;8.208;2023-05-09T01:43:38;30.30;;;23.23;;
18455;SDS011;9357;49.900;8.208;2023-05-09T01:45:14;26.83;;;23.07;;
18455;SDS011;9357;49.900;8.208;2023-05-09T01:46:48;25.67;;;21.73;;
18455;SDS011;9357;49.900;8.208;2023-05-09T01:48:23;26.00;;;20.87;;
18455;SDS011;9357;49.900;8.208;2023-05-09T01:49:57;24.37;;;21.30;;
18455;SDS011;9357;49.900;8.208;2023-05-09T01:51:32;23.07;;;20.30;;
18455;SDS011;9357;49.900;8.208;2023-05-09T01:53:06;23.73;;;19.73;;
18455;SDS011;9357;49.900;8.208;2023-05-09T01:54:41;27.67;;;20.23;;
18455;SDS011;9357;49.900;8.208;2023-05-09T01:56:14;24.83;;;19.57;;
18455;SDS011;9357;49.900;8.208;2023-05-09T01:57:48;26.67;;;20.23;;
18455;SDS011;9357;49.900;8.208;2023-05-09T01:59:22;24.97;;;21.13;;
18455;SDS011;9357;49.900;8.208;2023-05-09T02:00:56;25.33;;;21.53;;
18455;SDS011;9357;49.900;8.208;2023-05-09T02:02:30;26.13;;;21.77;;
18455;SDS011;9357;49.900;8.208;2023-05-09T02:04:03;26.23;;;21.87;;
18455;SDS011;9357;49.900;8.208;2023-05-09T02:05:37;30.90;;;21.83;;
18455;SDS011;9357;49.900;8.208;2023-05-09T02:07:09;26.77;;;21.00;;
18455;SDS011;9357;49.900;8.208;2023-05-09T02:08:43;25.17;;;21.47;;
18455;SDS011;9357;49.900;8.208;2023-05-09T02:10:17;25.23;;;21.30;;
18455;SDS011;9357;49.900;8.208;2023-05-09T02:11:51;24.80;;;20.07;;
18455;SDS011;9357;49.900;8.208;2023-05-09T02:13:23;23.93;;;20.40;;
18455;SDS011;9357;49.900;8.208;2023-05-09T02:14:56;27.77;;;22.40;;
18455;SDS011;9357;49.900;8.208;2023-05-09T02:16:29;26.80;;;20.60;;
18455;SDS011;9357;49.900;8.208;2023-05-09T02:18:02;27.30;;;20.50;;
18455;SDS011;9357;49.900;8.208;2023-05-09T02:19:34;26.53;;;19.97;;
18455;SDS011;9357;49.900;8.208;2023-05-09T02:21:07;24.53;;;20.20;;
18455;SDS011;9357;49.900;8.208;2023-05-09T02:22:40;26.00;;;20.53;;
18455;SDS011;9357;49.900;8.208;2023-05-09T02:24:14;23.77;;;19.43;;
18455;SDS011;9357;49.900;8.208;2023-05-09T02:25:47;26.50;;;20.57;;
18455;SDS011;9357;49.900;8.208;2023-05-09T02:27:19;24.47;;;20.67;;
18455;SDS011;9357;49.900;8.208;2023-05-09T02:28:52;26.90;;;20.97;;
18455;SDS011;9357;49.900;8.208;2023-05-09T02:30:27;23.90;;;20.03;;
18455;SDS011;9357;49.900;8.208;2023-05-09T02:32:09;25.97;;;20.97;;
18455;SDS011;9357;49.900;8.208;2023-05-09T02:33:44;27.47;;;21.53;;
18455;SDS011;9357;49.900;8.208;2023-05-09T02:35:18;30.67;;;22.77;;
18455;SDS011;9357;49.900;8.208;2023-05-09T02:36:52;27.37;;;21.93;;
18455;SDS011;9357;49.900;8.208;2023-05-09T02:38:24;27.90;;;22.37;;
18455;SDS011;9357;49.900;8.208;2023-05-09T02:39:58;28.50;;;22.43;;
18455;SDS011;9357;49.900;8.208;2023-05-09T02:41:30;29.07;;;22.83;;
18455;SDS011;9357;49.900;8.208;2023-05-09T02:43:02;27.93;;;23.50;;
18455;SDS011;9357;49.900;8.208;2023-05-09T02:44:35;29.83;;;23.37;;
18455;SDS011;9357;49.900;8.208;2023-05-09T02:46:09;28.60;;;24.27;;
18455;SDS011;9357;49.900;8.208;2023-05-09T02:47:43;29.83;;;23.60;;
18455;SDS011;9357;49.900;8.208;2023-05-09T02:49:16;31.47;;;23.93;;
18455;SDS011;9357;49.900;8.208;2023-05-09T02:51:02;28.40;;;24.07;;
18455;SDS011;9357;49.900;8.208;2023-05-09T02:52:35;28.90;;;23.97;;
18455;SDS011;9357;49.900;8.208;2023-05-09T02:54:08;26.57;;;23.27;;
18455;SDS011;9357;49.900;8.208;2023-05-09T02:55:41;29.47;;;23.73;;
18455;SDS011;9357;49.900;8.208;2023-05-09T02:57:13;26.73;;;22.20;;
18455;SDS011;9357;49.900;8.208;2023-05-09T02:58:46;28.50;;;22.17;;
18455;SDS011;9357;49.900;8.208;2023-05-09T03:00:21;27.07;;;22.80;;
18455;SDS011;9357;49.900;8.208;2023-05-09T03:01:55;25.33;;;21.90;;
18455;SDS011;9357;49.900;8.208;2023-05-09T03:03:30;27.33;;;22.83;;
18455;SDS011;9357;49.900;8.208;2023-05-09T03:05:05;28.17;;;22.83;;
18455;SDS011;9357;49.900;8.208;2023-05-09T03:06:37;27.83;;;22.30;;
18455;SDS011;9357;49.900;8.208;2023-05-09T03:08:10;28.97;;;23.13;;
18455;SDS011;9357;49.900;8.208;2023-05-09T03:09:43;28.97;;;23.20;;
18455;SDS011;9357;49.900;8.208;2023-05-09T03:11:15;25.73;;;21.53;;
18455;SDS011;9357;49.900;8.208;2023-05-09T03:12:48;28.07;;;23.23;;
18455;SDS011;9357;49.900;8.208;2023-05-09T03:14:21;25.60;;;21.60;;
18455;SDS011;9357;49.900;8.208;2023-05-09T03:15:54;26.57;;;21.43;;
18455;SDS011;9357;49.900;8.208;2023-05-09T03:17:27;23.43;;;20.43;;
18455;SDS011;9357;49.900;8.208;2023-05-09T03:19:01;23.53;;;20.73;;
18455;SDS011;9357;49.900;8.208;2023-05-09T03:20:34;23.93;;;19.67;;
18455;SDS011;9357;49.900;8.208;2023-05-09T03:22:06;24.80;;;20.40;;
18455;SDS011;9357;49.900;8.208;2023-05-09T03:23:39;22.03;;;19.50;;
18455;SDS011;9357;49.900;8.208;2023-05-09T03:25:12;24.77;;;20.50;;
18455;SDS011;9357;49.900;8.208;2023-05-09T03:26:45;22.90;;;19.07;;
18455;SDS011;9357;49.900;8.208;2023-05-09T03:28:18;24.27;;;21.23;;
18455;SDS011;9357;49.900;8.208;2023-05-09T03:29:51;21.30;;;19.00;;
18455;SDS011;9357;49.900;8.208;2023-05-09T03:31:23;23.07;;;20.13;;
18455;SDS011;9357;49.900;8.208;2023-05-09T03:32:56;22.80;;;20.27;;
18455;SDS011;9357;49.900;8.208;2023-05-09T03:34:31;23.97;;;20.43;;
18455;SDS011;9357;49.900;8.208;2023-05-09T03:36:03;23.60;;;20.33;;
18455;SDS011;9357;49.900;8.208;2023-05-09T03:37:36;25.27;;;21.13;;
18455;SDS011;9357;49.900;8.208;2023-05-09T03:39:09;24.60;;;20.07;;
18455;SDS011;9357;49.900;8.208;2023-05-09T03:40:42;25.27;;;20.67;;
18455;SDS011;9357;49.900;8.208;2023-05-09T03:42:15;30.40;;;21.67;;
18455;SDS011;9357;49.900;8.208;2023-05-09T03:43:48;28.40;;;22.47;;
18455;SDS011;9357;49.900;8.208;2023-05-09T03:45:20;31.33;;;23.73;;
18455;SDS011;9357;49.900;8.208;2023-05-09T03:46:53;28.50;;;22.53;;
18455;SDS011;9357;49.900;8.208;2023-05-09T03:48:25;28.00;;;22.90;;
18455;SDS011;9357;49.900;8.208;2023-05-09T03:49:59;27.27;;;22.53;;
18455;SDS011;9357;49.900;8.208;2023-05-09T03:51:32;24.73;;;21.17;;
18455;SDS011;9357;49.900;8.208;2023-05-09T03:53:05;25.50;;;21.27;;
18455;SDS011;9357;49.900;8.208;2023-05-09T03:54:37;26.10;;;21.40;;
18455;SDS011;9357;49.900;8.208;2023-05-09T03:56:10;24.40;;;21.07;;
18455;SDS011;9357;49.900;8.208;2023-05-09T03:57:43;26.10;;;22.97;;
18455;SDS011;9357;49.900;8.208;2023-05-09T03:59:16;25.07;;;21.63;;
18455;SDS011;9357;49.900;8.208;2023-05-09T04:00:48;29.93;;;23.13;;
18455;SDS011;9357;49.900;8.208;2023-05-09T04:02:21;28.00;;;22.50;;
18455;SDS011;9357;49.900;8.208;2023-05-09T04:03:54;26.93;;;22.13;;
18455;SDS011;9357;49.900;8.208;2023-05-09T04:05:29;28.50;;;23.37;;
18455;SDS011;9357;49.900;8.208;2023-05-09T04:07:03;28.23;;;22.67;;
18455;SDS011;9357;49.900;8.208;2023-05-09T04:08:36;31.23;;;22.93;;
18455;SDS011;9357;49.900;8.208;2023-05-09T04:10:09;28.30;;;22.33;;
18455;SDS011;9357;49.900;8.208;2023-05-09T04:11:42;27.27;;;22.80;;
18455;SDS011;9357;49.900;8.208;2023-05-09T04:13:15;26.70;;;22.73;;
18455;SDS011;9357;49.900;8.208;2023-05-09T04:14:48;26.93;;;22.67;;
18455;SDS011;9357;49.900;8.208;2023-05-09T04:16:21;23.93;;;20.43;;
18455;SDS011;9357;49.900;8.208;2023-05-09T04:17:54;26.73;;;21.57;;
18455;SDS011;9357;49.900;8.208;2023-05-09T04:19:27;23.17;;;20.10;;
18455;SDS011;9357;49.900;8.208;2023-05-09T04:21:02;24.63;;;20.70;;
18455;SDS011;9357;49.900;8.208;2023-05-09T04:22:35;25.83;;;20.07;;
18455;SDS011;9357;49.900;8.208;2023-05-09T04:24:08;23.07;;;20.17;;
18455;SDS011;9357;49.900;8.208;2023-05-09T04:25:40;26.53;;;20.87;;
18455;SDS011;9357;49.900;8.208;2023-05-09T04:27:13;21.37;;;19.07;;
18455;SDS011;9357;49.900;8.208;2023-05-09T04:28:46;22.17;;;19.00;;
18455;SDS011;9357;49.900;8.208;2023-05-09T04:30:18;23.87;;;19.70;;
18455;SDS011;9357;49.900;8.208;2023-05-09T04:31:51;19.80;;;17.70;;
18455;SDS011;9357;49.900;8.208;2023-05-09T04:33:24;23.10;;;19.23;;
18455;SDS011;9357;49.900;8.208;2023-05-09T04:34:56;21.63;;;18.70;;
18455;SDS011;9357;49.900;8.208;2023-05-09T04:36:30;21.37;;;17.90;;
18455;SDS011;9357;49.900;8.208;2023-05-09T04:38:03;22.80;;;18.03;;
18455;SDS011;9357;49.900;8.208;2023-05-09T04:39:36;19.53;;;17.43;;
18455;SDS011;9357;49.900;8.208;2023-05-09T04:41:09;22.53;;;19.07;;
18455;SDS011;9357;49.900;8.208;2023-05-09T04:42:42;20.70;;;18.13;;
18455;SDS011;9357;49.900;8.208;2023-05-09T04:44:13;21.60;;;19.17;;
18455;SDS011;9357;49.900;8.208;2023-05-09T04:45:47;23.03;;;20.53;;
18455;SDS011;9357;49.900;8.208;2023-05-09T04:47:19;24.40;;;20.57;;
18455;SDS011;9357;49.900;8.208;2023-05-09T04:48:52;23.10;;;20.03;;
18455;SDS011;9357;49.900;8.208;2023-05-09T04:50:25;26.70;;;21.30;;
18455;SDS011;9357;49.900;8.208;2023-05-09T04:51:59;26.00;;;20.83;;
18455;SDS011;9357;49.900;8.208;2023-05-09T04:53:31;24.17;;;21.10;;
18455;SDS011;9357;49.900;8.208;2023-05-09T04:55:04;24.63;;;21.77;;
18455;SDS011;9357;49.900;8.208;2023-05-09T04:56:38;25.40;;;21.57;;
18455;SDS011;9357;49.900;8.208;2023-05-09T04:58:11;24.63;;;21.60;;
18455;SDS011;9357;49.900;8.208;2023-05-09T04:59:43;28.03;;;23.20;;
18455;SDS011;9357;49.900;8.208;2023-05-09T05:01:16;26.03;;;23.10;;
18455;SDS011;9357;49.900;8.208;2023-05-09T05:02:49;29.10;;;23.43;;
18455;SDS011;9357;49.900;8.208;2023-05-09T05:04:21;27.83;;;23.20;;
18455;SDS011;9357;49.900;8.208;2023-05-09T05:05:54;30.30;;;23.37;;
18455;SDS011;9357;49.900;8.208;2023-05-09T05:07:28;27.03;;;23.30;;
18455;SDS011;9357;49.900;8.208;2023-05-09T05:09:01;25.30;;;22.07;;
18455;SDS011;9357;49.900;8.208;2023-05-09T05:10:34;29.53;;;24.13;;
18455;SDS011;9357;49.900;8.208;2023-05-09T05:12:06;28.10;;;23.47;;
18455;SDS011;9357;49.900;8.208;2023-05-09T05:13:40;27.10;;;22.47;;
18455;SDS011;9357;49.900;8.208;2023-05-09T05:15:12;26.63;;;23.23;;
18455;SDS011;9357;49.900;8.208;2023-05-09T05:16:46;28.23;;;23.33;;
18455;SDS011;9357;49.900;8.208;2023-05-09T05:18:18;27.67;;;22.20;;
18455;SDS011;9357;49.900;8.208;2023-05-09T05:19:51;26.87;;;23.27;;
18455;SDS011;9357;49.900;8.208;2023-05-09T05:21:24;26.80;;;21.80;;
18455;SDS011;9357;49.900;8.208;2023-05-09T05:22:58;24.97;;;21.80;;
18455;SDS011;9357;49.900;8.208;2023-05-09T05:24:31;30.40;;;23.47;;
18455;SDS011;9357;49.900;8.208;2023-05-09T05:26:03;25.30;;;21.57;;
18455;SDS011;9357;49.900;8.208;2023-05-09T05:27:35;24.67;;;22.00;;
18455;SDS011;9357;49.900;8.208;2023-05-09T05:29:08;25.87;;;21.77;;
18455;SDS011;9357;49.900;8.208;2023-05-09T05:30:41;28.77;;;23.23;;
18455;SDS011;9357;49.900;8.208;2023-05-09T05:32:13;25.90;;;22.53;;
18455;SDS011;9357;49.900;8.208;2023-05-09T05:33:45;25.37;;;22.20;;
18455;SDS011;9357;49.900;8.208;2023-05-09T05:35:18;27.90;;;23.37;;
18455;SDS011;9357;49.900;8.208;2023-05-09T05:36:53;27.67;;;22.70;;
18455;SDS011;9357;49.900;8.208;2023-05-09T05:38:26;26.80;;;22.97;;
18455;SDS011;9357;49.900;8.208;2023-05-09T05:39:59;24.83;;;21.60;;
18455;SDS011;9357;49.900;8.208;2023-05-09T05:41:31;27.63;;;23.53;;
18455;SDS011;9357;49.900;8.208;2023-05-09T05:43:04;25.63;;;21.97;;
18455;SDS011;9357;49.900;8.208;2023-05-09T05:44:37;29.17;;;23.37;;
18455;SDS011;9357;49.900;8.208;2023-05-09T05:46:09;25.40;;;21.67;;
18455;SDS011;9357;49.900;8.208;2023-05-09T05:47:42;24.97;;;21.33;;
18455;SDS011;9357;49.900;8.208;2023-05-09T05:49:16;26.07;;;22.30;;
18455;SDS011;9357;49.900;8.208;2023-05-09T05:50:48;25.53;;;22.43;;
18455;SDS011;9357;49.900;8.208;2023-05-09T05:52:21;24.63;;;21.87;;
18455;SDS011;9357;49.900;8.208;2023-05-09T05:53:55;24.07;;;21.57;;
18455;SDS011;9357;49.900;8.208;2023-05-09T05:55:28;22.97;;;20.57;;
18455;SDS011;9357;49.900;8.208;2023-05-09T05:57:01;22.93;;;20.57;;
18455;SDS011;9357;49.900;8.208;2023-05-09T05:58:32;22.80;;;19.67;;
18455;SDS011;9357;49.900;8.208;2023-05-09T06:00:06;22.67;;;19.87;;
18455;SDS011;9357;49.900;8.208;2023-05-09T06:01:40;23.03;;;20.53;;
18455;SDS011;9357;49.900;8.208;2023-05-09T06:03:13;24.70;;;20.43;;
18455;SDS011;9357;49.900;8.208;2023-05-09T06:04:47;21.90;;;19.30;;
18455;SDS011;9357;49.900;8.208;2023-05-09T06:06:20;20.27;;;18.13;;
18455;SDS011;9357;49.900;8.208;2023-05-09T06:07:53;19.97;;;17.87;;
18455;SDS011;9357;49.900;8.208;2023-05-09T06:09:27;21.67;;;19.40;;
18455;SDS011;9357;49.900;8.208;2023-05-09T06:11:00;22.70;;;20.30;;
18455;SDS011;9357;49.900;8.208;2023-05-09T06:12:33;23.57;;;21.00;;
18455;SDS011;9357;49.900;8.208;2023-05-09T06:14:06;22.13;;;19.83;;
18455;SDS011;9357;49.900;8.208;2023-05-09T06:15:39;22.53;;;20.10;;
18455;SDS011;9357;49.900;8.208;2023-05-09T06:17:11;23.83;;;20.50;;
18455;SDS011;9357;49.900;8.208;2023-05-09T06:18:44;23.73;;;21.20;;
18455;SDS011;9357;49.900;8.208;2023-05-09T06:20:17;23.27;;;20.27;;
18455;SDS011;9357;49.900;8.208;2023-05-09T06:21:50;24.13;;;20.90;;
18455;SDS011;9357;49.900;8.208;2023-05-09T06:23:23;28.37;;;23.00;;
18455;SDS011;9357;49.900;8.208;2023-05-09T06:24:57;24.50;;;21.13;;
18455;SDS011;9357;49.900;8.208;2023-05-09T06:26:29;24.93;;;22.10;;
18455;SDS011;9357;49.900;8.208;2023-05-09T06:28:02;24.37;;;20.47;;
18455;SDS011;9357;49.900;8.208;2023-05-09T06:29:35;27.00;;;23.43;;
18455;SDS011;9357;49.900;8.208;2023-05-09T06:31:08;23.83;;;21.23;;
18455;SDS011;9357;49.900;8.208;2023-05-09T06:32:41;23.03;;;20.40;;
18455;SDS011;9357;49.900;8.208;2023-05-09T06:34:13;21.97;;;19.60;;
18455;SDS011;9357;49.900;8.208;2023-05-09T06:35:46;21.63;;;19.23;;
18455;SDS011;9357;49.900;8.208;2023-05-09T06:37:19;27.13;;;22.20;;
18455;SDS011;9357;49.900;8.208;2023-05-09T06:38:52;25.50;;;21.50;;
18455;SDS011;9357;49.900;8.208;2023-05-09T06:40:26;28.13;;;23.73;;
18455;SDS011;9357;49.900;8.208;2023-05-09T06:41:58;27.53;;;23.33;;
18455;SDS011;9357;49.900;8.208;2023-05-09T06:43:31;31.83;;;25.13;;
18455;SDS011;9357;49.900;8.208;2023-05-09T06:45:04;29.90;;;25.10;;
18455;SDS011;9357;49.900;8.208;2023-05-09T06:46:37;30.70;;;25.63;;
18455;SDS011;9357;49.900;8.208;2023-05-09T06:48:10;30.70;;;25.43;;
18455;SDS011;9357;49.900;8.208;2023-05-09T06:49:43;31.27;;;25.53;;
18455;SDS011;9357;49.900;8.208;2023-05-09T06:51:16;29.60;;;25.60;;
18455;SDS011;9357;49.900;8.208;2023-05-09T06:52:49;34.20;;;26.53;;
18455;SDS011;9357;49.900;8.208;2023-05-09T06:54:21;32.70;;;26.07;;
18455;SDS011;9357;49.900;8.208;2023-05-09T06:55:55;41.83;;;28.90;;
18455;SDS011;9357;49.900;8.208;2023-05-09T06:57:29;44.53;;;30.70;;
18455;SDS011;9357;49.900;8.208;2023-05-09T06:59:02;41.13;;;28.67;;
18455;SDS011;9357;49.900;8.208;2023-05-09T07:00:35;41.60;;;29.30;;
18455;SDS011;9357;49.900;8.208;2023-05-09T07:02:07;45.77;;;31.53;;
18455;SDS011;9357;49.900;8.208;2023-05-09T07:03:40;44.77;;;31.70;;
18455;SDS011;9357;49.900;8.208;2023-05-09T07:05:13;43.57;;;31.07;;
18455;SDS011;9357;49.900;8.208;2023-05-09T07:06:46;45.17;;;31.63;;
18455;SDS011;9357;49.900;8.208;2023-05-09T07:08:19;42.57;;;29.17;;
18455;SDS011;9357;49.900;8.208;2023-05-09T07:09:52;45.30;;;31.17;;
18455;SDS011;9357;49.900;8.208;2023-05-09T07:11:39;44.93;;;31.07;;
18455;SDS011;9357;49.900;8.208;2023-05-09T07:13:11;45.63;;;31.47;;
18455;SDS011;9357;49.900;8.208;2023-05-09T07:14:44;42.20;;;31.37;;
18455;SDS011;9357;49.900;8.208;2023-05-09T07:16:17;42.57;;;30.57;;
18455;SDS011;9357;49.900;8.208;2023-05-09T07:17:52;43.43;;;31.10;;
18455;SDS011;9357;49.900;8.208;2023-05-09T07:19:25;42.43;;;30.67;;
18455;SDS011;9357;49.900;8.208;2023-05-09T07:20:58;44.93;;;31.27;;
18455;SDS011;9357;49.900;8.208;2023-05-09T07:22:30;46.83;;;31.70;;
18455;SDS011;9357;49.900;8.208;2023-05-09T07:24:07;43.67;;;31.50;;
18455;SDS011;9357;49.900;8.208;2023-05-09T07:25:40;45.07;;;32.47;;
18455;SDS011;9357;49.900;8.208;2023-05-09T07:27:15;44.97;;;30.97;;
18455;SDS011;9357;49.900;8.208;2023-05-09T07:28:48;44.90;;;31.23;;
18455;SDS011;9357;49.900;8.208;2023-05-09T07:30:20;45.07;;;31.50;;
18455;SDS011;9357;49.900;8.208;2023-05-09T07:31:53;44.00;;;30.47;;
18455;SDS011;9357;49.900;8.208;2023-05-09T07:33:26;43.10;;;31.37;;
18455;SDS011;9357;49.900;8.208;2023-05-09T07:34:59;43.93;;;30.93;;
18455;SDS011;9357;49.900;8.208;2023-05-09T07:36:32;42.13;;;30.07;;
18455;SDS011;9357;49.900;8.208;2023-05-09T07:38:05;43.97;;;30.83;;
18455;SDS011;9357;49.900;8.208;2023-05-09T07:39:38;46.60;;;30.67;;
18455;SDS011;9357;49.900;8.208;2023-05-09T07:41:11;42.47;;;30.27;;
18455;SDS011;9357;49.900;8.208;2023-05-09T07:42:45;45.80;;;31.47;;
18455;SDS011;9357;49.900;8.208;2023-05-09T07:44:20;43.33;;;31.63;;
18455;SDS011;9357;49.900;8.208;2023-05-09T07:45:53;42.97;;;29.17;;
18455;SDS011;9357;49.900;8.208;2023-05-09T07:47:26;43.00;;;30.07;;
18455;SDS011;9357;49.900;8.208;2023-05-09T07:48:59;42.93;;;30.20;;
18455;SDS011;9357;49.900;8.208;2023-05-09T07:50:32;42.20;;;28.97;;
18455;SDS011;9357;49.900;8.208;2023-05-09T07:52:04;46.57;;;30.60;;
18455;SDS011;9357;49.900;8.208;2023-05-09T07:53:37;42.17;;;29.80;;
18455;SDS011;9357;49.900;8.208;2023-05-09T07:55:10;42.30;;;29.80;;
18455;SDS011;9357;49.900;8.208;2023-05-09T07:56:43;43.43;;;29.63;;
18455;SDS011;9357;49.900;8.208;2023-05-09T07:58:17;41.27;;;29.40;;
18455;SDS011;9357;49.900;8.208;2023-05-09T07:59:50;44.63;;;29.73;;
18455;SDS011;9357;49.900;8.208;2023-05-09T08:01:22;42.57;;;28.90;;
18455;SDS011;9357;49.900;8.208;2023-05-09T08:02:55;44.33;;;29.27;;
18455;SDS011;9357;49.900;8.208;2023-05-09T08:04:28;46.90;;;29.57;;
18455;SDS011;9357;49.900;8.208;2023-05-09T08:06:01;43.63;;;29.33;;
18455;SDS011;9357;49.900;8.208;2023-05-09T08:07:34;43.50;;;29.10;;
18455;SDS011;9357;49.900;8.208;2023-05-09T08:09:07;42.30;;;28.97;;
18455;SDS011;9357;49.900;8.208;2023-05-09T08:10:40;42.77;;;30.17;;
18455;SDS011;9357;49.900;8.208;2023-05-09T08:12:13;43.17;;;28.40;;
18455;SDS011;9357;49.900;8.208;2023-05-09T08:13:47;43.97;;;29.40;;
18455;SDS011;9357;49.900;8.208;2023-05-09T08:15:19;42.87;;;29.07;;
18455;SDS011;9357;49.900;8.208;2023-05-09T08:16:52;44.97;;;29.90;;
18455;SDS011;9357;49.900;8.208;2023-05-09T08:18:25;44.57;;;29.73;;
18455;SDS011;9357;49.900;8.208;2023-05-09T08:19:57;40.90;;;29.77;;
18455;SDS011;9357;49.900;8.208;2023-05-09T08:21:30;40.73;;;28.47;;
18455;SDS011;9357;49.900;8.208;2023-05-09T08:23:03;40.90;;;29.97;;
18455;SDS011;9357;49.900;8.208;2023-05-09T08:24:36;41.83;;;29.97;;
18455;SDS011;9357;49.900;8.208;2023-05-09T08:26:09;41.77;;;29.90;;
18455;SDS011;9357;49.900;8.208;2023-05-09T08:27:41;39.80;;;29.40;;
18455;SDS011;9357;49.900;8.208;2023-05-09T08:29:16;39.70;;;28.30;;
18455;SDS011;9357;49.900;8.208;2023-05-09T08:30:49;38.13;;;29.30;;
18455;SDS011;9357;49.900;8.208;2023-05-09T08:32:22;39.03;;;29.60;;
18455;SDS011;9357;49.900;8.208;2023-05-09T08:33:55;41.07;;;29.47;;
18455;SDS011;9357;49.900;8.208;2023-05-09T08:35:27;43.83;;;30.70;;
18455;SDS011;9357;49.900;8.208;2023-05-09T08:37:00;44.10;;;31.20;;
18455;SDS011;9357;49.900;8.208;2023-05-09T08:38:33;40.60;;;30.13;;
18455;SDS011;9357;49.900;8.208;2023-05-09T08:40:07;40.87;;;29.67;;
18455;SDS011;9357;49.900;8.208;2023-05-09T08:41:40;43.43;;;30.40;;
18455;SDS011;9357;49.900;8.208;2023-05-09T08:43:14;40.73;;;29.50;;
18455;SDS011;9357;49.900;8.208;2023-05-09T08:44:50;42.90;;;30.50;;
18455;SDS011;9357;49.900;8.208;2023-05-09T08:46:25;41.30;;;29.80;;
18455;SDS011;9357;49.900;8.208;2023-05-09T08:48:02;40.93;;;29.83;;
18455;SDS011;9357;49.900;8.208;2023-05-09T08:49:35;38.50;;;30.07;;
18455;SDS011;9357;49.900;8.208;2023-05-09T08:51:08;40.30;;;30.37;;
18455;SDS011;9357;49.900;8.208;2023-05-09T08:52:42;40.20;;;30.33;;
18455;SDS011;9357;49.900;8.208;2023-05-09T08:54:14;37.77;;;29.00;;
18455;SDS011;9357;49.900;8.208;2023-05-09T08:55:47;40.77;;;29.67;;
18455;SDS011;9357;49.900;8.208;2023-05-09T08:57:20;42.10;;;29.83;;
18455;SDS011;9357;49.900;8.208;2023-05-09T08:58:53;36.30;;;28.67;;
18455;SDS011;9357;49.900;8.208;2023-05-09T09:00:29;39.60;;;29.60;;
18455;SDS011;9357;49.900;8.208;2023-05-09T09:02:04;40.77;;;30.70;;
18455;SDS011;9357;49.900;8.208;2023-05-09T09:03:37;38.27;;;29.90;;
18455;SDS011;9357;49.900;8.208;2023-05-09T09:05:15;41.37;;;31.27;;
18455;SDS011;9357;49.900;8.208;2023-05-09T09:07:08;44.23;;;31.80;;
18455;SDS011;9357;49.900;8.208;2023-05-09T09:08:42;38.80;;;29.53;;
18455;SDS011;9357;49.900;8.208;2023-05-09T09:10:15;36.63;;;28.17;;
18455;SDS011;9357;49.900;8.208;2023-05-09T09:11:50;34.77;;;27.17;;
18455;SDS011;9357;49.900;8.208;2023-05-09T09:13:25;36.37;;;28.73;;
18455;SDS011;9357;49.900;8.208;2023-05-09T09:15:01;38.03;;;28.93;;
18455;SDS011;9357;49.900;8.208;2023-05-09T09:16:37;36.20;;;27.93;;